createdAt,value
2022-10-01T00:02:01.039Z,4.30
2022-10-01T00:04:47.184Z,4.40
2022-10-01T00:07:43.933Z,3.65
2022-10-01T00:10:31.411Z,4.20
2022-10-01T00:13:17.439Z,4.00
2022-10-01T00:16:11.306Z,3.65
2022-10-01T00:18:58.023Z,3.53
2022-10-01T00:21:44.052Z,3.60
2022-10-01T00:24:29.814Z,3.85
2022-10-01T00:27:15.857Z,3.42
2022-10-01T00:30:04.179Z,4.03
2022-10-01T00:32:54.101Z,3.72
2022-10-01T00:35:39.876Z,4.13
2022-10-01T00:38:25.958Z,4.70
2022-10-01T00:41:12.149Z,4.45
2022-10-01T00:44:20.438Z,4.35
2022-10-01T00:47:27.001Z,4.15
2022-10-01T00:50:28.321Z,3.75
2022-10-01T00:53:14.299Z,3.80
2022-10-01T00:56:00.164Z,3.95
2022-10-01T00:58:46.095Z,3.90
2022-10-01T01:01:33.346Z,4.13
2022-10-01T01:04:19.668Z,4.22
2022-10-01T01:07:07.091Z,3.90
2022-10-01T01:09:53.564Z,4.15
2022-10-01T01:13:04.310Z,4.32
2022-10-01T01:16:03.649Z,3.70
2022-10-01T01:19:02.395Z,3.70
2022-10-01T01:21:56.629Z,4.10
2022-10-01T01:24:59.824Z,3.83
2022-10-01T01:28:17.821Z,4.00
2022-10-01T01:31:08.131Z,4.45
2022-10-01T01:33:55.698Z,4.30
2022-10-01T01:36:46.035Z,4.38
2022-10-01T01:39:33.140Z,3.95
2022-10-01T01:42:24.135Z,3.58
2022-10-01T01:45:16.002Z,3.83
2022-10-01T01:48:02.770Z,3.55
2022-10-01T01:51:10.600Z,3.70
2022-10-01T01:53:57.118Z,3.60
2022-10-01T01:56:43.213Z,3.40
2022-10-01T01:59:29.153Z,3.72
2022-10-01T02:02:19.310Z,4.22
2022-10-01T02:05:12.254Z,5.80
2022-10-01T02:08:26.559Z,5.00
2022-10-01T02:11:26.228Z,5.30
2022-10-01T02:14:28.747Z,5.22
2022-10-01T02:17:21.656Z,5.93
2022-10-01T02:23:15.721Z,5.05
2022-10-01T02:26:19.684Z,5.35
2022-10-01T02:29:11.376Z,5.30
2022-10-01T02:31:57.500Z,10.05
2022-10-01T02:34:44.645Z,14.07
2022-10-01T02:37:30.474Z,9.90
2022-10-01T02:40:19.672Z,7.88
2022-10-01T02:43:16.460Z,6.90
2022-10-01T02:46:28.450Z,8.27
2022-10-01T02:49:15.117Z,7.63
2022-10-01T02:52:16.458Z,5.80
2022-10-01T02:55:08.721Z,6.68
2022-10-01T02:57:57.892Z,6.47
2022-10-01T03:00:44.104Z,6.55
2022-10-01T03:03:32.416Z,5.70
2022-10-01T03:06:18.448Z,5.97
2022-10-01T03:09:04.282Z,6.55
2022-10-01T03:11:50.143Z,7.22
2022-10-01T03:14:36.258Z,8.70
2022-10-01T03:17:22.446Z,10.45
2022-10-01T03:20:09.003Z,8.48
2022-10-01T03:22:55.129Z,6.75
2022-10-01T03:25:41.203Z,7.45
2022-10-01T03:28:27.082Z,8.30
2022-10-01T03:31:12.798Z,8.73
2022-10-01T03:34:00.428Z,8.98
2022-10-01T03:36:47.068Z,7.70
2022-10-01T03:39:33.006Z,7.30
2022-10-01T03:42:19.127Z,7.07
2022-10-01T03:45:04.961Z,6.93
2022-10-01T03:47:53.899Z,6.22
2022-10-01T03:50:39.716Z,5.90
2022-10-01T03:53:27.330Z,6.70
2022-10-01T03:56:13.918Z,6.30
2022-10-01T03:59:00.101Z,6.93
2022-10-01T04:01:46.006Z,6.75
2022-10-01T04:04:32.102Z,7.13
2022-10-01T04:07:17.925Z,8.07
2022-10-01T04:10:04.292Z,7.75
2022-10-01T04:12:50.193Z,8.40
2022-10-01T04:15:36.147Z,7.97
2022-10-01T04:18:22.024Z,7.18
2022-10-01T04:21:07.917Z,7.28
2022-10-01T04:23:54.111Z,7.05
2022-10-01T04:26:40.398Z,7.45
2022-10-01T04:29:26.426Z,8.43
2022-10-01T04:32:12.193Z,7.38
2022-10-01T04:34:58.174Z,7.70
2022-10-01T04:37:43.992Z,8.93
2022-10-01T04:40:31.021Z,9.80
2022-10-01T04:43:17.104Z,9.75
2022-10-01T04:46:03.290Z,9.77
2022-10-01T04:48:49.524Z,9.80
2022-10-01T04:51:35.647Z,9.35
2022-10-01T04:54:21.781Z,8.77
2022-10-01T04:57:07.686Z,9.43
2022-10-01T04:59:53.579Z,9.57
2022-10-01T05:02:39.708Z,12.05
2022-10-01T05:05:28.150Z,10.63
2022-10-01T05:08:14.449Z,9.73
2022-10-01T05:11:00.645Z,9.98
2022-10-01T05:13:46.678Z,10.90
2022-10-01T05:16:32.716Z,10.10
2022-10-01T05:19:18.586Z,10.10
2022-10-01T05:22:04.403Z,10.45
2022-10-01T05:24:50.539Z,13.55
2022-10-01T05:27:37.981Z,12.93
2022-10-01T05:30:24.524Z,11.93
2022-10-01T05:33:10.806Z,10.55
2022-10-01T05:35:59.823Z,10.10
2022-10-01T05:38:48.421Z,10.38
2022-10-01T05:41:35.040Z,9.98
2022-10-01T05:44:22.398Z,10.27
2022-10-01T05:47:08.410Z,10.25
2022-10-01T05:49:54.277Z,9.90
2022-10-01T05:52:42.549Z,9.00
2022-10-01T05:55:34.915Z,10.38
2022-10-01T05:58:20.911Z,10.55
2022-10-01T06:01:07.064Z,9.88
2022-10-01T06:03:53.103Z,10.45
2022-10-01T06:06:39.377Z,12.15
2022-10-01T06:09:25.403Z,10.43
2022-10-01T06:12:11.239Z,12.02
2022-10-01T06:14:57.147Z,11.35
2022-10-01T06:17:45.778Z,12.02
2022-10-01T06:20:31.857Z,11.18
2022-10-01T06:23:17.850Z,10.90
2022-10-01T06:26:08.280Z,12.52
2022-10-01T06:28:54.239Z,12.07
2022-10-01T06:31:40.266Z,12.40
2022-10-01T06:34:26.579Z,13.90
2022-10-01T06:37:12.498Z,13.18
2022-10-01T06:39:58.296Z,12.75
2022-10-01T06:42:50.310Z,13.73
2022-10-01T06:45:43.363Z,11.45
2022-10-01T06:48:31.422Z,11.02
2022-10-01T06:51:37.249Z,10.63
2022-10-01T06:54:23.136Z,10.68
2022-10-01T06:57:09.054Z,12.88
2022-10-01T06:59:55.568Z,12.27
2022-10-01T07:02:41.949Z,13.07
2022-10-01T07:05:28.341Z,12.20
2022-10-01T07:08:14.929Z,10.73
2022-10-01T07:11:05.099Z,24.20
2022-10-01T07:13:54.581Z,50.55
2022-10-01T07:16:40.991Z,43.70
2022-10-01T07:19:27.232Z,40.85
2022-10-01T07:22:13.427Z,40.85
2022-10-01T07:24:59.368Z,43.80
2022-10-01T07:27:45.248Z,34.05
2022-10-01T07:30:32.130Z,25.02
2022-10-01T07:33:18.914Z,25.80
2022-10-01T07:36:07.766Z,25.95
2022-10-01T07:38:53.825Z,34.83
2022-10-01T07:41:40.214Z,38.03
2022-10-01T07:44:27.831Z,35.72
2022-10-01T07:47:15.130Z,35.78
2022-10-01T07:50:01.325Z,28.02
2022-10-01T07:52:53.954Z,29.83
2022-10-01T07:55:40.201Z,26.08
2022-10-01T07:58:26.595Z,25.50
2022-10-01T08:01:12.814Z,23.52
2022-10-01T08:03:58.637Z,21.83
2022-10-01T08:06:45.926Z,16.55
2022-10-01T08:09:31.949Z,17.42
2022-10-01T08:12:19.672Z,18.13
2022-10-01T08:15:10.292Z,17.67
2022-10-01T08:17:56.339Z,16.50
2022-10-01T08:20:42.487Z,15.77
2022-10-01T08:23:29.804Z,16.33
2022-10-01T08:26:15.658Z,13.27
2022-10-01T08:29:01.684Z,16.20
2022-10-01T08:31:47.645Z,14.57
2022-10-01T08:34:33.702Z,15.48
2022-10-01T08:37:19.660Z,17.77
2022-10-01T08:40:06.119Z,16.30
2022-10-01T08:43:00.109Z,16.05
2022-10-01T08:45:51.571Z,16.05
2022-10-01T08:48:57.504Z,18.20
2022-10-01T08:52:00.370Z,19.33
2022-10-01T08:54:54.069Z,19.77
2022-10-01T08:57:47.006Z,17.13
2022-10-01T09:00:36.228Z,16.27
2022-10-01T09:03:22.622Z,18.00
2022-10-01T09:06:27.046Z,18.35
2022-10-01T09:09:32.977Z,17.75
2022-10-01T09:12:25.051Z,18.75
2022-10-01T09:15:18.267Z,19.13
2022-10-01T09:18:07.867Z,20.38
2022-10-01T09:21:00.396Z,19.77
2022-10-01T09:24:12.495Z,20.50
2022-10-01T09:26:58.333Z,17.40
2022-10-01T09:30:14.366Z,17.50
2022-10-01T09:33:09.181Z,19.13
2022-10-01T09:36:13.207Z,19.38
2022-10-01T09:39:13.610Z,21.02
2022-10-01T09:41:59.800Z,18.40
2022-10-01T09:44:47.677Z,21.00
2022-10-01T09:47:34.397Z,20.25
2022-10-01T09:50:41.574Z,21.70
2022-10-01T09:53:42.468Z,22.65
2022-10-01T09:56:31.144Z,18.33
2022-10-01T09:59:29.029Z,18.08
2022-10-01T10:02:20.027Z,14.93
2022-10-01T10:05:09.399Z,17.30
2022-10-01T10:08:02.646Z,16.45
2022-10-01T10:10:51.539Z,21.05
2022-10-01T10:13:41.551Z,19.77
2022-10-01T10:16:29.955Z,13.20
2022-10-01T10:19:27.650Z,10.70
2022-10-01T10:22:25.057Z,8.38
2022-10-01T10:25:17.672Z,10.93
2022-10-01T10:28:05.169Z,8.73
2022-10-01T10:30:53.872Z,7.75
2022-10-01T10:34:05.832Z,7.25
2022-10-01T10:36:57.849Z,5.65
2022-10-01T10:39:48.021Z,4.53
2022-10-01T10:42:38.286Z,5.32
2022-10-01T10:45:34.033Z,10.60
2022-10-01T10:48:20.068Z,8.65
2022-10-01T10:51:06.436Z,6.90
2022-10-01T10:53:52.433Z,6.53
2022-10-01T10:56:38.591Z,5.93
2022-10-01T10:59:24.653Z,7.00
2022-10-01T11:02:16.972Z,13.18
2022-10-01T11:05:19.330Z,7.53
2022-10-01T11:08:07.232Z,5.85
2022-10-01T11:10:59.326Z,6.47
2022-10-01T11:13:51.220Z,5.38
2022-10-01T11:17:00.480Z,5.80
2022-10-01T11:19:49.344Z,6.75
2022-10-01T11:23:15.788Z,7.03
2022-10-01T11:26:20.201Z,5.80
2022-10-01T11:29:39.397Z,5.47
2022-10-01T11:32:34.138Z,8.38
2022-10-01T11:35:35.494Z,7.32
2022-10-01T11:38:30.798Z,9.70
2022-10-01T11:41:35.437Z,11.88
2022-10-01T11:44:32.804Z,8.85
2022-10-01T11:47:27.833Z,7.43
2022-10-01T11:50:25.406Z,6.15
2022-10-01T11:53:20.768Z,6.35
2022-10-01T11:56:33.689Z,13.35
2022-10-01T12:02:44.229Z,9.10
2022-10-01T12:05:32.052Z,7.22
2022-10-01T12:08:24.240Z,7.07
2022-10-01T12:11:21.276Z,8.55
2022-10-01T12:14:20.927Z,14.43
2022-10-01T12:17:17.981Z,14.13
2022-10-01T12:20:08.767Z,15.45
2022-10-01T12:22:56.303Z,7.47
2022-10-01T12:25:49.157Z,8.93
2022-10-01T12:28:52.027Z,7.95
2022-10-01T12:31:55.610Z,11.32
2022-10-01T12:34:55.988Z,19.65
2022-10-01T12:37:45.908Z,13.90
2022-10-01T12:40:53.616Z,10.93
2022-10-01T12:43:54.265Z,12.27
2022-10-01T12:47:12.527Z,13.02
2022-10-01T12:50:26.447Z,17.90
2022-10-01T12:53:16.543Z,15.50
2022-10-01T12:56:17.232Z,9.25
2022-10-01T12:59:28.284Z,11.43
2022-10-01T13:02:33.594Z,12.27
2022-10-01T13:05:28.193Z,11.70
2022-10-01T13:08:17.285Z,11.23
2022-10-01T13:11:09.492Z,9.00
2022-10-01T13:13:56.940Z,10.57
2022-10-01T13:17:12.508Z,9.05
2022-10-01T13:20:07.098Z,10.23
2022-10-01T13:23:01.226Z,10.07
2022-10-01T13:26:08.727Z,9.95
2022-10-01T13:29:03.357Z,10.25
2022-10-01T13:31:59.686Z,10.45
2022-10-01T13:34:46.539Z,7.80
2022-10-01T13:37:39.979Z,8.68
2022-10-01T13:40:34.215Z,7.72
2022-10-01T13:43:21.666Z,7.43
2022-10-01T13:46:09.920Z,6.68
2022-10-01T13:48:56.293Z,6.68
2022-10-01T13:51:44.038Z,6.95
2022-10-01T13:54:47.027Z,10.07
2022-10-01T14:00:23.819Z,7.90
2022-10-01T14:03:31.314Z,7.13
2022-10-01T14:06:23.823Z,8.20
2022-10-01T14:12:40.488Z,9.55
2022-10-01T14:15:52.400Z,8.32
2022-10-01T14:18:42.919Z,6.00
2022-10-01T14:21:48.496Z,7.55
2022-10-01T14:24:46.437Z,8.35
2022-10-01T14:27:57.225Z,7.18
2022-10-01T14:30:58.489Z,6.50
2022-10-01T14:33:58.033Z,7.97
2022-10-01T14:36:52.744Z,8.02
2022-10-01T14:39:38.843Z,9.90
2022-10-01T14:42:24.880Z,8.38
2022-10-01T14:45:16.089Z,7.47
2022-10-01T14:48:06.156Z,9.35
2022-10-01T14:50:57.726Z,8.27
2022-10-01T14:53:43.827Z,8.50
2022-10-01T14:56:30.059Z,8.52
2022-10-01T14:59:36.398Z,7.63
2022-10-01T15:02:24.475Z,10.32
2022-10-01T15:05:41.641Z,8.02
2022-10-01T15:08:41.863Z,9.80
2022-10-01T15:11:31.524Z,7.63
2022-10-01T15:14:24.416Z,7.20
2022-10-01T15:17:25.284Z,8.27
2022-10-01T15:20:12.515Z,7.28
2022-10-01T15:23:01.467Z,6.30
2022-10-01T15:25:47.861Z,6.45
2022-10-01T15:28:36.105Z,6.78
2022-10-01T15:31:22.478Z,7.68
2022-10-01T15:34:13.221Z,7.07
2022-10-01T15:37:02.450Z,7.68
2022-10-01T15:39:51.797Z,6.93
2022-10-01T15:42:38.123Z,8.07
2022-10-01T15:45:26.019Z,7.82
2022-10-01T15:48:41.306Z,7.38
2022-10-01T15:51:28.394Z,7.85
2022-10-01T15:54:15.610Z,8.73
2022-10-01T15:57:02.954Z,9.55
2022-10-01T15:59:50.840Z,9.48
2022-10-01T16:02:36.823Z,6.97
2022-10-01T16:05:26.400Z,7.43
2022-10-01T16:08:21.415Z,8.88
2022-10-01T16:11:13.239Z,9.65
2022-10-01T16:14:21.297Z,9.20
2022-10-01T16:17:19.864Z,8.25
2022-10-01T16:20:15.111Z,8.82
2022-10-01T16:23:34.096Z,8.93
2022-10-01T16:26:32.347Z,7.70
2022-10-01T16:29:21.730Z,8.20
2022-10-01T16:32:11.431Z,8.10
2022-10-01T16:35:17.265Z,6.47
2022-10-01T16:38:06.795Z,8.27
2022-10-01T16:40:53.081Z,7.03
2022-10-01T16:43:39.221Z,6.70
2022-10-01T16:46:25.508Z,6.70
2022-10-01T16:49:14.149Z,6.13
2022-10-01T16:52:00.166Z,6.10
2022-10-01T16:54:47.461Z,6.45
2022-10-01T16:57:33.506Z,7.28
2022-10-01T17:00:21.206Z,6.28
2022-10-01T17:03:12.265Z,6.38
2022-10-01T17:05:58.444Z,6.57
2022-10-01T17:08:44.372Z,7.28
2022-10-01T17:11:30.200Z,9.55
2022-10-01T17:14:18.180Z,12.70
2022-10-01T17:17:04.053Z,11.82
2022-10-01T17:19:49.998Z,11.45
2022-10-01T17:22:36.327Z,12.27
2022-10-01T17:25:25.384Z,14.35
2022-10-01T17:28:14.909Z,12.60
2022-10-01T17:31:00.953Z,8.55
2022-10-01T17:33:47.008Z,8.98
2022-10-01T17:36:35.329Z,6.95
2022-10-01T17:39:21.504Z,5.85
2022-10-01T17:42:07.801Z,6.95
2022-10-01T17:44:54.885Z,7.75
2022-10-01T17:47:48.788Z,8.30
2022-10-01T17:50:35.531Z,9.13
2022-10-01T17:53:21.791Z,9.70
2022-10-01T17:56:10.238Z,9.68
2022-10-01T17:58:56.510Z,9.00
2022-10-01T18:01:42.359Z,8.85
2022-10-01T18:04:28.174Z,9.70
2022-10-01T18:07:14.410Z,8.77
2022-10-01T18:10:00.704Z,10.25
2022-10-01T18:12:46.920Z,10.85
2022-10-01T18:15:32.781Z,10.55
2022-10-01T18:19:51.424Z,9.35
2022-10-01T18:21:25.034Z,11.43
2022-10-01T18:24:10.960Z,10.95
2022-10-01T18:26:57.072Z,14.88
2022-10-01T18:29:43.345Z,12.93
2022-10-01T18:32:37.758Z,15.30
2022-10-01T18:35:34.453Z,17.13
2022-10-01T18:38:25.548Z,16.30
2022-10-01T18:41:29.397Z,16.10
2022-10-01T18:44:20.309Z,13.20
2022-10-01T18:47:09.598Z,12.15
2022-10-01T18:50:12.177Z,11.32
2022-10-01T18:53:08.020Z,10.75
2022-10-01T18:56:04.288Z,9.50
2022-10-01T18:59:17.888Z,10.43
2022-10-01T19:02:22.242Z,9.07
2022-10-01T19:05:36.189Z,9.10
2022-10-01T19:08:37.254Z,8.85
2022-10-01T19:11:26.410Z,9.25
2022-10-01T19:14:40.552Z,9.95
2022-10-01T19:18:17.957Z,11.93
2022-10-01T19:21:58.551Z,12.32
2022-10-01T19:24:59.431Z,17.15
2022-10-01T19:28:09.773Z,21.92
2022-10-01T19:31:14.239Z,12.32
2022-10-01T19:34:15.087Z,10.77
2022-10-01T19:37:05.508Z,9.50
2022-10-01T19:39:52.789Z,7.88
2022-10-01T19:42:40.512Z,8.88
2022-10-01T19:45:33.737Z,8.95
2022-10-01T19:48:55.163Z,9.30
2022-10-01T19:51:46.136Z,8.52
2022-10-01T19:54:34.716Z,8.93
2022-10-01T19:57:27.222Z,10.10
2022-10-01T20:00:19.745Z,8.48
2022-10-01T20:03:14.549Z,8.55
2022-10-01T20:06:05.865Z,9.77
2022-10-01T20:08:56.139Z,9.52
2022-10-01T20:12:12.285Z,10.80
2022-10-01T20:15:36.334Z,10.82
2022-10-01T20:18:38.509Z,14.07
2022-10-01T20:21:45.500Z,9.77
2022-10-01T20:25:00.560Z,8.98
2022-10-01T20:27:52.287Z,7.97
2022-10-01T20:30:48.578Z,7.70
2022-10-01T20:33:43.421Z,8.93
2022-10-01T20:36:40.489Z,10.05
2022-10-01T20:39:32.794Z,12.00
2022-10-01T20:42:24.221Z,10.80
2022-10-01T20:45:21.465Z,10.70
2022-10-01T20:48:14.338Z,14.65
2022-10-01T20:51:03.937Z,11.90
2022-10-01T20:54:03.529Z,11.35
2022-10-01T20:57:20.522Z,11.52
2022-10-01T21:00:28.762Z,11.13
2022-10-01T21:03:32.568Z,13.10
2022-10-01T21:06:21.881Z,11.02
2022-10-01T21:09:18.899Z,12.30
2022-10-01T21:12:15.237Z,10.52
2022-10-01T21:15:01.822Z,9.18
2022-10-01T21:18:12.006Z,9.30
2022-10-01T21:21:09.850Z,9.10
2022-10-01T21:24:16.221Z,7.85
2022-10-01T21:27:11.347Z,8.43
2022-10-01T21:30:07.480Z,8.88
2022-10-01T21:33:47.349Z,8.65
2022-10-01T21:36:54.062Z,8.57
2022-10-01T21:39:53.605Z,7.60
2022-10-01T21:42:51.423Z,7.88
2022-10-01T21:46:03.946Z,7.28
2022-10-01T21:48:59.006Z,7.30
2022-10-01T21:52:15.177Z,6.78
2022-10-01T21:55:20.442Z,7.30
2022-10-01T21:58:29.645Z,7.97
2022-10-01T22:01:17.791Z,7.80
2022-10-01T22:04:45.941Z,7.05
2022-10-01T22:07:35.959Z,6.93
2022-10-01T22:10:29.153Z,7.32
2022-10-01T22:13:20.250Z,6.45
2022-10-01T22:16:13.772Z,6.20
2022-10-01T22:19:11.328Z,6.47
2022-10-01T22:22:09.628Z,6.13
2022-10-01T22:24:58.993Z,5.50
2022-10-01T22:28:02.379Z,7.00
2022-10-01T22:30:50.081Z,6.53
2022-10-01T22:33:44.209Z,6.30
2022-10-01T22:36:43.819Z,7.18
2022-10-01T22:39:34.664Z,8.05
2022-10-01T22:42:26.948Z,6.38
2022-10-01T22:45:15.738Z,6.55
2022-10-01T22:48:14.585Z,8.30
2022-10-01T22:51:12.659Z,7.85
2022-10-01T22:54:09.151Z,8.27
2022-10-01T22:57:07.484Z,8.10
2022-10-01T23:00:05.701Z,7.30
2022-10-01T23:02:51.908Z,6.75
2022-10-01T23:05:41.200Z,6.75
2022-10-01T23:08:48.518Z,6.40
2022-10-01T23:11:46.746Z,5.65
2022-10-01T23:15:04.568Z,6.20
2022-10-01T23:17:50.409Z,5.82
2022-10-01T23:21:01.216Z,6.65
2022-10-01T23:24:34.080Z,5.75
2022-10-01T23:27:30.329Z,5.32
2022-10-01T23:30:18.425Z,5.22
2022-10-01T23:33:32.051Z,5.10
2022-10-01T23:36:23.975Z,4.25
2022-10-01T23:39:28.926Z,4.82
2022-10-01T23:42:36.658Z,5.50
2022-10-01T23:45:34.674Z,5.25
2022-10-01T23:48:35.073Z,5.50
2022-10-01T23:51:56.548Z,4.82
2022-10-01T23:54:48.276Z,5.07
2022-10-01T23:57:38.002Z,4.30
